NATURA VA

 METAR AND TAF INFORMATION
METAR FOR OBBI
ADDS - METARS form results

(1701 UTC 26 March 2019)
Data provider http://aviationweather.gov/metar/data/
 
METAR text: OBBI 261700Z 33017KT 5000 DU SKC 21/18 Q1013 NOSIG
Conditions at: OBBI (BAHRAIN INTL ARP, BH) observed 1700 UTC 26 March 2019
Temperature: 21.0°C (70°F)
Dewpoint: 18.0°C (64°F) [RH = 83%]
Pressure (altimeter): 29.91 inches Hg (1013.0 mb)
Winds: from the NNW (330 degrees) at 20 MPH (17 knots; 8.7 m/s)
Visibility: 3 miles ( 5 km)
Ceiling: at least 12,000 feet AGL
Clouds: clear skies
Weather: DU  (widespread dust)

METAR text: OBBI 261630Z 34016KT 5000 DU SKC 22/17 Q1013 NOSIG
Conditions at: OBBI (BAHRAIN INTL ARP, BH) observed 1630 UTC 26 March 2019
Temperature: 22.0°C (72°F)
Dewpoint: 17.0°C (63°F) [RH = 73%]
Pressure (altimeter): 29.91 inches Hg (1013.0 mb)
Winds: from the NNW (340 degrees) at 18 MPH (16 knots; 8.2 m/s)
Visibility: 3 miles ( 5 km)
Ceiling: at least 12,000 feet AGL
Clouds: clear skies
Weather: DU  (widespread dust)

Forecast for: OBBI (BAHRAIN INTL ARP, BH)
Text: TAF OBBI 261700Z 2618/2800 34012KT 8000 NSC
Forecast period: 1800 UTC 26 March 2019 to 0000 UTC 28 March 2019
Forecast type: FROM: standard forecast or significant change
Winds: from the NNW (340 degrees) at 14 MPH (12 knots; 6.2 m/s)
Visibility: 5 miles (8 km)
Ceiling: unknown
Clouds: missing
Weather: no significant weather forecast for this period
Text: BECMG 2618/2620 5000 DU
Forecast period: 1800 UTC 26 March 2019 to 0000 UTC 28 March 2019
Forecast type: BECOMING: Conditions expected to become as follows by 2000 UTC 26 March 2019
Winds: from the NNW (340 degrees) at 14 MPH (12 knots; 6.2 m/s)
Visibility: 3 miles (5 km)
Ceiling: unknown
Clouds: missing
Weather: DU  (widespread dust)

 AIRPORT MAP

 RUNWAY INFORMATION
Runway 12L Runway length 12979 ft Runway width 197 ft
Runway elevation 6 ft Runway displaced threshold 1000 ft Runway heading 123
Runway 30R Runway length 12979 ft Runway width 197 ft
Runway elevation 6 ft Runway displaced threshold 1000 ft Runway heading 303
Runway 12R Runway length 8302 ft Runway width 148 ft
Runway elevation 7 ft Runway displaced threshold 1000 ft Runway heading 123
Runway 30L Runway length 8302 ft Runway width 148 ft
Runway elevation 6 ft Runway displaced threshold 395 ft Runway heading 303

 AIRPORT FREQUENCIES
Type APP Name APP Frequency 127.85 MHZ
Type ATIS Name ATIS Frequency 127.2 MHZ
Type GND Name GND Frequency 121.675 MHZ
Type OPS Name ATOC Frequency 32.175 MHZ
Type TWR Name TWR Frequency 118.5 MHZ

 AIRPORT NEAR NAVIGATION AIDS
Type VOR-DME Name Bahrain Frequency 115300 KHZ
Type NDB Name Bahrain Frequency 395 KHZ



Powered by Virtual Airlines Manager [v2.6.2]